ZPPP

Kunming Wujiaba International Airport

Kunming, China
TAF ZPPP 201908Z 2100/2124 22007MPS 9999 SCT026 TX25/2108Z TN11/2123Z BECMG 2103/2104 22012G17MPS BECMG 2111/2112 22007MPS
Issued Valid From Valid To
Apr-20 @ 19:08 UTC
(9 hours ago)
Apr-21 @ 00:00 UTC
(4 hours ago)
Apr-22 @ 00:00 UTC
(in 20 hours)
Expired Click to View Apr-21 @ 00:00 to Apr-21 @ 03:00
TAF ZPPP 201908Z 2100/2124 22007MPS 9999 SCT026 TX25/2108Z TN11/2123Z
Wind Visibility Clouds
220° at 14 knots 10,000+ meters
  • Scattered at 2,600' AGL
Becoming Apr-21 @ 03:00 to Apr-21 @ 11:00
BECMG 2103/2104 22012G17MPS
Wind Visibility Clouds
220° at 23 knots
 Gusting to 33 knots
10,000+ meters
  • Scattered at 2,600' AGL
Becoming Apr-21 @ 11:00 to Apr-22 @ 00:00
BECMG 2111/2112 22007MPS
Wind Visibility Clouds
220° at 14 knots 10,000+ meters
  • Scattered at 2,600' AGL
TAF ZPPP 201908Z 2100/2124 22007MPS 9999 SCT026 TX25/2108Z TN11/2123Z BECMG 2103/2104 22012G17MPS BECMG 2111/2112 22007MPS
Issued Apr-20 @ 19:08 UTC
(9 hours ago)
Valid From Apr-21 @ 00:00 UTC
(4 hours ago)
Valid To Apr-22 @ 00:00 UTC
(in 20 hours)
Apr-21 @ 00:00 - Apr-21 @ 03:00
Wind Visibility
220° at 14 knots 10,000+ meters
Clouds
  • Scattered at 2,600' AGL
Becoming Apr-21 @ 03:00 - Apr-21 @ 11:00
Wind Visibility
220° at 23 knots
 Gusting to 33 knots
10,000+ meters
Clouds
  • Scattered at 2,600' AGL
Becoming Apr-21 @ 11:00 - Apr-22 @ 00:00
Wind Visibility
220° at 14 knots 10,000+ meters
Clouds
  • Scattered at 2,600' AGL